Marine Hornbill — 3FEF3 — position and weather

sailwx.info

Track history (hours):
 
Tides and Currents Weather Stations Pressure Air Temp Water Temp Dewpoint Dewpoint Depression Visibility Wind Speed Wind Dir Waves Ship Positions

Marine Hornbill

Last reported at 2016-Jan-25 23:33 UTC. Time now 2016-Feb-14 19:01 UTC.
Position N 01°14' E 104°01'.
Warning: this ship's position is 19 days out of date.

Length 116 m; draft 5.2 m.

Type: Cargo ship. MMSI: 357869000.

Date/timePositionNaut miles runAvg speedWind from/ knotsBaromVisibWave heightAir tempDewpointWater temp
2016-Jan-25 23:33N 01°14' E 104°01'1010.1
2016-Jan-25 22:34N 01°11' E 103°51'10 9.5
2016-Jan-25 21:32N 01°05' E 103°44'7 3.5
2016-Jan-25 19:32N 01°11' E 103°40'2 0.3
2016-Jan-25 11:26N 01°11' E 103°42'0 0.0
2016-Jan-25 09:30N 01°11' E 103°42'4 3.7
2016-Jan-25 08:30N 01°13' E 103°39'  
2016-Jan-16 20:16N 01°11' E 103°42'0 0.0
2016-Jan-16 18:07N 01°11' E 103°42'0 0.0
2016-Jan-16 17:31N 01°11' E 103°42'0 0.0
2016-Jan-16 13:31N 01°11' E 103°42'0 0.0
2016-Jan-16 10:25N 01°11' E 103°43'1 1.0
2016-Jan-16 09:33N 01°10' E 103°43'6 6.4
2016-Jan-16 08:33N 01°11' E 103°49'7 6.7
2016-Jan-16 07:34N 01°14' E 103°56'7 7.0
2016-Jan-16 06:32N 01°16' E 104°03'  
Track history (hours):
 
Tides and Currents Weather Stations Pressure Air Temp Water Temp Dewpoint Dewpoint Depression Visibility Wind Speed Wind Dir Waves Ship Positions

Marine Hornbill

Last reported at 2016-Jan-25 23:33 UTC. Time now 2016-Feb-14 19:01 UTC.
Position N 01°14' E 104°01'.
Warning: this ship's position is 19 days out of date.

Length 116 m; draft 5.2 m.

Type: Cargo ship. MMSI: 357869000.

Date/timePositionNaut miles runAvg speedWind from/ knotsBaromVisibWave heightAir tempDewpointWater temp
2016-Jan-25 23:33N 01°14' E 104°01'1010.1
2016-Jan-25 22:34N 01°11' E 103°51'10 9.5
2016-Jan-25 21:32N 01°05' E 103°44'7 3.5
2016-Jan-25 19:32N 01°11' E 103°40'2 0.3
2016-Jan-25 11:26N 01°11' E 103°42'0 0.0
2016-Jan-25 09:30N 01°11' E 103°42'4 3.7
2016-Jan-25 08:30N 01°13' E 103°39'  
2016-Jan-16 20:16N 01°11' E 103°42'0 0.0
2016-Jan-16 18:07N 01°11' E 103°42'0 0.0
2016-Jan-16 17:31N 01°11' E 103°42'0 0.0
2016-Jan-16 13:31N 01°11' E 103°42'0 0.0
2016-Jan-16 10:25N 01°11' E 103°43'1 1.0
2016-Jan-16 09:33N 01°10' E 103°43'6 6.4
2016-Jan-16 08:33N 01°11' E 103°49'7 6.7
2016-Jan-16 07:34N 01°14' E 103°56'7 7.0
2016-Jan-16 06:32N 01°16' E 104°03'  

Dump ship's entire track history